Latest Weather Observations for Mount Ginini

IDN60801

Issued at 9:35 pm EDT Saturday 1 November 2014 (issued every 30 minutes, with the page automatically refreshed every 10 minutes)

About weather observations | Map of weather stations | Latest weather observations for NSW | Other Formats
Station Details ID: 070349 Name: MOUNT GININI AWS Lat: -35.53 Lon: 148.77 Height: 1760.0 m
Data from the previous 72 hours. | See also: Recent months at Mount Ginini
Date/Time
EDT
Temp
°C
App
Temp
°C
Dew
Point
Rel
Hum
%
Delta-T
°C
Wind Press
QNH
hPa
Press
MSL
hPa
Rain
since 9 am
mm
Dir
 
Spd
km/h
Gust
km/h
Spd
kts
Gust
kts
01/09:30pm 1.5 -7.3 -1.1 83 1.0 W 35 69 19 37 - - 3.6
01/09:00pm 2.1 -6.3 -1.3 78 1.4 W 33 67 18 36 - - 3.6
01/08:30pm 2.6 -5.6 -1.0 77 1.5 W 32 63 17 34 - - 3.6
01/08:00pm 3.0 -4.3 -0.1 80 1.3 WSW 28 54 15 29 - - 3.6
01/07:51pm 3.2 -4.1 0.3 81 1.2 W 28 61 15 33 - - 3.6
01/07:30pm 3.6 -2.7 1.8 88 0.8 W 24 54 13 29 - - 3.6
01/07:00pm 4.3 -2.4 3.6 95 0.3 W 28 52 15 28 - - 3.6
01/06:30pm 4.9 -2.6 4.3 96 0.3 W 33 61 18 33 - - 3.6
01/06:00pm 5.1 -1.8 4.5 96 0.3 W 30 56 16 30 - - 3.6
01/05:30pm 6.0 -0.7 5.4 96 0.3 W 30 57 16 31 - - 3.6
01/05:00pm 5.8 -0.9 5.5 98 0.1 W 30 63 16 34 - - 3.6
01/04:54pm 5.7 -0.7 5.4 98 0.1 W 28 63 15 34 - - 3.6
01/04:30pm 5.3 0.0 5.0 98 0.1 W 22 44 12 24 - - 3.6
01/04:02pm 6.4 0.2 6.1 98 0.2 W 28 59 15 32 - - 3.6
01/04:00pm 6.4 0.6 6.1 98 0.2 W 26 59 14 32 - - 3.6
01/03:30pm 6.8 0.3 6.5 98 0.2 W 30 50 16 27 - - 3.4
01/03:00pm 7.4 1.4 7.1 98 0.2 W 28 54 15 29 - - 3.4
01/02:30pm 7.9 2.0 7.6 98 0.2 W 28 54 15 29 - - 3.0
01/02:00pm 7.9 1.6 7.6 98 0.2 W 30 63 16 34 - - 2.6
01/01:30pm 8.0 1.4 7.7 98 0.2 W 32 57 17 31 - - 1.4
01/01:03pm 7.9 2.0 7.3 96 0.3 W 28 52 15 28 - - 0.6
01/01:00pm 8.0 2.5 7.4 96 0.3 W 26 52 14 28 - - 0.4
01/12:30pm 10.4 3.8 7.8 84 1.4 W 32 59 17 32 - - 0.0
01/12:00pm 11.4 5.4 10.1 92 0.7 WNW 32 61 17 33 - - 0.0
01/11:30am 12.1 7.3 11.5 96 0.3 WNW 28 54 15 29 - - 0.0
01/11:03am 10.5 5.2 10.0 97 0.3 WNW 28 59 15 32 - - 0.0
01/11:00am 10.5 5.6 10.0 97 0.3 WNW 26 59 14 32 - - 0.0
01/10:30am 10.7 5.5 10.4 98 0.2 WNW 28 46 15 25 - - 0.0
01/10:10am 10.2 4.9 9.9 98 0.2 WNW 28 46 15 25 - - 0.0
01/10:00am 10.0 5.0 9.7 98 0.2 WNW 26 44 14 24 - - 0.0
01/09:30am 9.7 3.9 9.4 98 0.2 WNW 30 56 16 30 - - 0.0
01/09:00am 9.8 3.6 9.3 97 0.3 WNW 32 54 17 29 - - 0.0
01/08:30am 10.0 3.8 9.4 96 0.3 NW 32 57 17 31 - - 0.0
01/08:00am 10.2 3.1 9.4 95 0.4 NW 37 65 20 35 - - 0.0
01/07:30am 10.9 5.6 10.0 94 0.5 NW 28 52 15 28 - - 0.0
01/07:00am 10.4 4.2 9.5 94 0.5 NW 32 54 17 29 - - 0.0
01/06:33am 10.5 5.1 9.6 94 0.5 NW 28 46 15 25 - - 0.0
01/06:30am 10.5 5.5 9.6 94 0.5 NW 26 46 14 25 - - 0.0
01/06:16am 10.3 4.9 9.4 94 0.5 NW 28 52 15 28 - - 0.0
01/06:00am 10.4 5.3 9.2 92 0.7 NNW 26 43 14 23 - - 0.0
01/05:52am 10.6 5.2 9.4 92 0.7 NNW 28 48 15 26 - - 0.0
01/05:30am 10.4 5.3 9.3 93 0.6 NW 26 44 14 24 - - 0.0
01/05:23am 10.5 5.1 9.4 93 0.6 NW 28 50 15 27 - - 0.0
01/05:00am 10.4 5.7 9.2 92 0.7 NW 24 43 13 23 - - 0.0
01/04:30am 10.5 5.4 7.7 83 1.5 NW 24 41 13 22 - - 0.0
01/04:00am 10.8 5.5 6.6 75 2.2 NW 24 50 13 27 - - 0.0
01/03:30am 11.4 5.9 5.7 68 2.9 NW 24 41 13 22 - - 0.0
01/03:00am 12.1 6.8 2.8 53 4.5 NW 20 39 11 21 - - 0.0
01/02:30am 13.6 7.8 -0.1 39 6.3 NW 20 41 11 22 - - 0.0
01/02:00am 14.9 8.0 -2.5 30 7.7 NNW 24 44 13 24 - - 0.0
01/01:56am 15.2 7.5 -2.7 29 7.9 NNW 28 50 15 27 - - 0.0
01/01:30am 15.7 9.2 -2.7 28 8.2 NW 22 39 12 21 - - 0.0
01/01:00am 15.6 9.1 -2.3 29 8.0 NW 22 43 12 23 - - 0.0
01/12:30am 15.6 9.5 -2.3 29 8.0 WNW 20 35 11 19 - - 0.0
01/12:00am 14.8 8.8 -3.0 29 7.8 NW 19 32 10 17 - - 0.0
 
Date/Time
EDT
Temp
°C
App
Temp
°C
Dew
Point
Rel
Hum
%
Delta-T
°C
Wind Press
QNH
hPa
Press
MSL
hPa
Rain
since 9 am
mm
Dir
 
Spd
km/h
Gust
km/h
Spd
kts
Gust
kts
31/11:30pm 14.6 9.3 -3.2 29 7.8 WNW 15 28 8 15 - - 0.0
31/11:00pm 14.8 9.6 -3.0 29 7.8 WNW 15 26 8 14 - - 0.0
31/10:30pm 14.8 10.0 -2.6 30 7.7 WNW 13 26 7 14 - - 0.0
31/10:00pm 15.1 10.0 -2.3 30 7.8 WNW 15 28 8 15 - - 0.0
31/09:30pm 15.0 9.8 -2.4 30 7.7 WNW 15 24 8 13 - - 0.0
31/09:00pm 15.2 9.7 -2.2 30 7.8 WNW 17 30 9 16 - - 0.0
31/08:30pm 15.3 10.2 -1.7 31 7.7 WNW 15 28 8 15 - - 0.0
31/08:00pm 16.1 10.1 -1.5 30 8.1 NW 20 37 11 20 - - 0.0
31/07:30pm 16.3 10.6 -0.8 31 8.0 NW 19 37 10 20 - - 0.0
31/07:00pm 16.8 11.0 -0.4 31 8.1 NW 20 37 11 20 - - 0.0
31/06:30pm 17.8 12.5 -0.5 29 8.7 NW 17 30 9 16 - - 0.0
31/06:00pm 18.3 12.0 -1.0 27 9.1 WNW 22 43 12 23 - - 0.0
31/05:30pm 19.6 13.0 -0.4 26 9.6 WNW 24 43 13 23 - - 0.0
31/05:00pm 20.4 13.4 -0.3 25 10.0 NW 26 48 14 26 - - 0.0
31/04:30pm 20.1 14.0 0.5 27 9.6 NW 22 39 12 21 - - 0.0
31/04:00pm 21.3 15.9 1.0 26 10.2 WNW 19 39 10 21 - - 0.0
31/03:30pm 20.9 16.5 2.7 30 9.4 WNW 15 28 8 15 - - 0.0
31/03:00pm 21.1 16.6 2.4 29 9.6 WNW 15 33 8 18 - - 0.0
31/02:30pm 19.7 14.4 1.7 30 9.0 WNW 19 33 10 18 - - 0.0
31/02:00pm 20.0 13.6 1.0 28 9.4 WNW 24 44 13 24 - - 0.0
31/01:39pm 19.7 12.7 1.7 30 9.0 WNW 28 54 15 29 - - 0.0
31/01:30pm 19.8 13.5 1.3 29 9.2 WNW 24 48 13 26 - - 0.0
31/01:00pm 18.5 12.4 0.6 30 8.7 WNW 22 43 12 23 - - 0.0
31/12:30pm 19.1 12.8 1.6 31 8.7 WNW 24 48 13 26 - - 0.0
31/12:00pm 18.7 12.9 2.1 33 8.3 NW 22 41 12 22 - - 0.0
31/11:30am 18.0 13.1 2.3 35 7.9 WNW 17 35 9 19 - - 0.0
31/11:00am 17.1 11.7 2.3 37 7.4 WNW 20 41 11 22 - - 0.0
31/10:30am 16.9 11.8 3.2 40 6.9 WNW 19 35 10 19 - - 0.0
31/10:00am 16.0 11.6 2.8 41 6.6 WNW 15 28 8 15 - - 0.0
31/09:30am 15.1 10.2 2.0 41 6.4 WNW 17 32 9 17 - - 0.0
31/09:00am 14.0 8.6 1.0 41 6.2 WNW 19 37 10 20 - - 0.0
31/08:30am 13.1 7.9 0.2 41 6.0 WNW 17 28 9 15 - - 0.0
31/08:00am 12.3 6.4 -0.6 41 5.8 WNW 20 32 11 17 - - 0.0
31/07:30am 11.6 6.3 -0.9 42 5.6 WNW 17 30 9 16 - - 0.0
31/07:00am 11.2 5.8 -1.2 42 5.5 WNW 17 32 9 17 - - 0.0
31/06:30am 10.5 5.1 -1.2 44 5.1 WNW 17 28 9 15 - - 0.0
31/06:00am 10.5 5.1 -1.2 44 5.1 WNW 17 30 9 16 - - 0.0
31/05:30am 10.7 4.9 -1.4 43 5.3 WNW 19 33 10 18 - - 0.0
31/05:00am 10.6 5.2 -1.4 43 5.2 WNW 17 35 9 19 - - 0.0
31/04:30am 10.8 5.0 -1.3 43 5.3 WNW 19 35 10 19 - - 0.0
31/04:00am 10.8 5.0 -1.3 43 5.3 W 19 33 10 18 - - 0.0
31/03:30am 10.8 5.0 -1.6 42 5.4 W 19 35 10 19 - - 0.0
31/03:00am 10.8 5.0 -1.6 42 5.4 W 19 32 10 17 - - 0.0
31/02:30am 10.6 5.1 -2.1 41 5.5 W 17 32 9 17 - - 0.0
31/02:00am 10.8 4.9 -2.6 39 5.7 W 19 33 10 18 - - 0.0
31/01:30am 10.9 5.0 -2.5 39 5.7 W 19 32 10 17 - - 0.0
31/01:00am 10.8 5.2 -2.9 38 5.8 W 17 26 9 14 - - 0.0
31/12:30am 10.1 5.2 -3.6 38 5.7 W 13 24 7 13 - - 0.0
31/12:00am 10.0 5.1 -3.3 39 5.5 WNW 13 22 7 12 - - 0.0
 
Date/Time
EDT
Temp
°C
App
Temp
°C
Dew
Point
Rel
Hum
%
Delta-T
°C
Wind Press
QNH
hPa
Press
MSL
hPa
Rain
since 9 am
mm
Dir
 
Spd
km/h
Gust
km/h
Spd
kts
Gust
kts
30/11:30pm 9.6 5.9 -3.3 40 5.4 WNW 7 13 4 7 - - 0.0
30/11:00pm 10.5 6.4 -3.2 38 5.7 WSW 9 19 5 10 - - 0.0
30/10:30pm 10.7 5.8 -3.0 38 5.8 WSW 13 24 7 13 - - 0.0
30/10:00pm 10.9 6.1 -2.5 39 5.7 WSW 13 26 7 14 - - 0.0
30/09:30pm 11.2 6.0 -2.6 38 5.9 W 15 28 8 15 - - 0.0
30/09:00pm 11.3 6.6 -1.8 40 5.7 W 13 32 7 17 - - 0.0
30/08:30pm 11.1 6.4 -1.6 41 5.6 W 13 24 7 13 - - 0.0
30/08:00pm 11.6 6.9 -1.5 40 5.8 W 13 26 7 14 - - 0.0
30/07:30pm 12.1 7.5 -0.7 41 5.8 W 13 28 7 15 - - 0.0
30/07:00pm 13.3 8.1 0.3 41 6.0 W 17 30 9 16 - - 0.0
30/06:30pm 13.9 8.4 0.9 41 6.1 W 19 35 10 19 - - 0.0
30/06:00pm 14.3 8.8 0.9 40 6.4 W 19 37 10 20 - - 0.0
30/05:30pm 15.4 10.0 1.5 39 6.7 WNW 19 33 10 18 - - 0.0
30/05:00pm 15.6 10.3 2.1 40 6.6 WSW 19 41 10 22 - - 0.0
30/04:30pm 16.3 11.6 3.0 41 6.7 W 17 33 9 18 - - 0.0
30/04:00pm 16.5 11.8 3.2 41 6.7 W 17 35 9 19 - - 0.0
30/03:30pm 16.1 11.0 2.9 41 6.6 W 19 33 10 18 - - 0.0
30/03:00pm 16.4 11.2 2.4 39 7.0 WNW 19 32 10 17 - - 0.0
30/02:30pm 16.6 11.6 1.5 36 7.4 W 17 32 9 17 - - 0.0
30/02:00pm 16.5 11.7 0.2 33 7.8 W 15 33 8 18 - - 0.0
30/01:30pm 16.4 11.5 1.7 37 7.2 W 17 33 9 18 - - 0.0
30/01:00pm 15.1 10.5 1.6 40 6.5 WSW 15 30 8 16 - - 0.0
30/12:30pm 14.8 10.1 3.0 45 5.9 WSW 17 30 9 16 - - 0.0
30/12:00pm 14.0 9.1 2.3 45 5.7 SW 17 33 9 18 - - 0.0
30/11:30am 13.1 8.8 0.8 43 5.8 WSW 13 32 7 17 - - 0.0
30/11:00am 13.1 9.3 1.8 46 5.4 WSW 11 26 6 14 - - 0.0
30/10:30am 11.4 7.0 2.9 56 4.1 W 15 26 8 14 - - 0.0
30/10:00am 9.9 4.4 0.8 53 4.2 WSW 19 39 10 21 - - 0.0
30/09:30am 10.2 5.4 2.8 60 3.5 WSW 17 32 9 17 - - 0.0
30/09:00am 7.8 2.5 2.1 67 2.6 WSW 19 32 10 17 - - 0.0
30/08:30am 6.9 2.3 1.6 69 2.4 WSW 15 30 8 16 - - 0.0
30/08:00am 6.4 1.4 1.5 71 2.2 WSW 17 32 9 17 - - 0.0
30/07:30am 6.0 1.0 1.2 71 2.1 WSW 17 33 9 18 - - 0.0
30/07:00am 5.6 0.1 0.8 71 2.1 WSW 19 33 10 18 - - 0.0
30/06:30am 5.4 -0.1 0.6 71 2.1 WSW 19 35 10 19 - - 0.0
30/06:00am 5.0 -0.2 2.4 83 1.2 WSW 19 32 10 17 - - 0.0
30/05:30am 5.3 -0.4 2.7 83 1.2 SW 22 37 12 20 - - 0.0
30/05:00am 5.3 -0.5 2.1 80 1.4 SW 22 35 12 19 - - 0.0
30/04:30am 5.4 0.0 1.0 73 1.9 SW 19 37 10 20 - - 0.0
30/04:00am 5.4 0.3 0.8 72 2.0 WSW 17 35 9 19 - - 0.0
30/03:30am 5.4 0.4 1.1 74 1.9 WSW 17 30 9 16 - - 0.0
30/03:00am 5.7 0.7 1.2 73 2.0 WSW 17 28 9 15 - - 0.0
30/02:30am 5.6 0.5 0.8 71 2.1 WSW 17 28 9 15 - - 0.0
30/02:00am 5.9 0.8 0.9 70 2.2 WSW 17 28 9 15 - - 0.0
30/01:30am 6.0 0.9 0.8 69 2.3 WSW 17 30 9 16 - - 0.0
30/01:00am 6.4 0.9 0.5 66 2.6 WSW 19 32 10 17 - - 0.0
30/12:30am 6.5 1.7 0.4 65 2.7 WSW 15 32 8 17 - - 0.0
30/12:00am 6.6 1.5 0.5 65 2.7 WSW 17 30 9 16 - - 0.0
 
Date/Time
EDT
Temp
°C
App
Temp
°C
Dew
Point
Rel
Hum
%
Delta-T
°C
Wind Press
QNH
hPa
Press
MSL
hPa
Rain
since 9 am
mm
Dir
 
Spd
km/h
Gust
km/h
Spd
kts
Gust
kts
29/11:30pm 6.7 1.6 0.6 65 2.7 WSW 17 33 9 18 - - 0.0
29/11:00pm 6.9 1.8 0.8 65 2.7 WSW 17 30 9 16 - - 0.0
29/10:30pm 6.8 2.1 0.7 65 2.7 WSW 15 32 8 17 - - 0.0
29/10:00pm 7.0 2.3 0.9 65 2.7 WSW 15 28 8 15 - - 0.0

Other Formats:

Comma delimited format used in spreadsheet applications
http://www.bom.gov.au/fwo/IDN60801/IDN60801.95925.axf

JavaScript Object Notation format (JSON) in row-major order
http://www.bom.gov.au/fwo/IDN60801/IDN60801.95925.json